sensor_id;sensor_type;location;lat;lon;timestamp;P1;durP1;ratioP1;P2;durP2;ratioP2
60257;SDS011;46115;44.484;11.314;2022-10-16T00:00:15;10.77;;;7.10;;
60257;SDS011;46115;44.484;11.314;2022-10-16T00:04:38;9.27;;;7.22;;
60257;SDS011;46115;44.484;11.314;2022-10-16T00:09:02;12.07;;;7.00;;
60257;SDS011;46115;44.484;11.314;2022-10-16T00:13:25;9.70;;;6.40;;
60257;SDS011;46115;44.484;11.314;2022-10-16T00:17:48;10.85;;;6.70;;
60257;SDS011;46115;44.484;11.314;2022-10-16T00:22:11;12.35;;;6.70;;
60257;SDS011;46115;44.484;11.314;2022-10-16T00:26:35;10.13;;;7.10;;
60257;SDS011;46115;44.484;11.314;2022-10-16T00:30:59;8.98;;;6.80;;
60257;SDS011;46115;44.484;11.314;2022-10-16T00:35:25;9.90;;;6.70;;
60257;SDS011;46115;44.484;11.314;2022-10-16T00:39:48;10.43;;;6.57;;
60257;SDS011;46115;44.484;11.314;2022-10-16T00:49:16;10.25;;;6.72;;
60257;SDS011;46115;44.484;11.314;2022-10-16T00:53:42;8.35;;;6.90;;
60257;SDS011;46115;44.484;11.314;2022-10-16T00:58:05;11.15;;;6.88;;
60257;SDS011;46115;44.484;11.314;2022-10-16T01:02:28;13.48;;;6.85;;
60257;SDS011;46115;44.484;11.314;2022-10-16T01:06:53;10.25;;;6.97;;
60257;SDS011;46115;44.484;11.314;2022-10-16T01:11:25;11.50;;;6.72;;
60257;SDS011;46115;44.484;11.314;2022-10-16T01:15:56;9.37;;;6.70;;
60257;SDS011;46115;44.484;11.314;2022-10-16T01:20:28;10.20;;;7.07;;
60257;SDS011;46115;44.484;11.314;2022-10-16T01:24:54;12.65;;;7.03;;
60257;SDS011;46115;44.484;11.314;2022-10-16T01:29:25;10.63;;;7.05;;
60257;SDS011;46115;44.484;11.314;2022-10-16T01:33:53;8.25;;;6.60;;
60257;SDS011;46115;44.484;11.314;2022-10-16T01:38:23;9.20;;;6.40;;
60257;SDS011;46115;44.484;11.314;2022-10-16T01:42:52;9.00;;;6.97;;
60257;SDS011;46115;44.484;11.314;2022-10-16T01:47:23;9.07;;;6.82;;
60257;SDS011;46115;44.484;11.314;2022-10-16T01:51:49;9.10;;;6.75;;
60257;SDS011;46115;44.484;11.314;2022-10-16T01:56:16;9.45;;;7.03;;
60257;SDS011;46115;44.484;11.314;2022-10-16T02:00:42;9.63;;;6.57;;
60257;SDS011;46115;44.484;11.314;2022-10-16T02:05:12;9.05;;;6.65;;
60257;SDS011;46115;44.484;11.314;2022-10-16T02:09:42;9.23;;;7.13;;
60257;SDS011;46115;44.484;11.314;2022-10-16T02:14:05;8.10;;;6.45;;
60257;SDS011;46115;44.484;11.314;2022-10-16T02:18:28;9.35;;;6.70;;
60257;SDS011;46115;44.484;11.314;2022-10-16T02:22:53;8.55;;;6.90;;
60257;SDS011;46115;44.484;11.314;2022-10-16T02:27:19;10.13;;;6.78;;
60257;SDS011;46115;44.484;11.314;2022-10-16T02:31:48;7.55;;;6.32;;
60257;SDS011;46115;44.484;11.314;2022-10-16T02:36:14;12.30;;;7.53;;
60257;SDS011;46115;44.484;11.314;2022-10-16T02:40:38;9.13;;;6.93;;
60257;SDS011;46115;44.484;11.314;2022-10-16T02:45:02;12.27;;;6.80;;
60257;SDS011;46115;44.484;11.314;2022-10-16T02:49:24;10.40;;;6.60;;
60257;SDS011;46115;44.484;11.314;2022-10-16T02:53:47;8.55;;;6.78;;
60257;SDS011;46115;44.484;11.314;2022-10-16T02:58:11;12.23;;;7.30;;
60257;SDS011;46115;44.484;11.314;2022-10-16T03:02:34;11.23;;;7.18;;
60257;SDS011;46115;44.484;11.314;2022-10-16T03:06:57;10.40;;;6.85;;
60257;SDS011;46115;44.484;11.314;2022-10-16T03:11:19;10.30;;;6.60;;
60257;SDS011;46115;44.484;11.314;2022-10-16T03:15:44;10.48;;;6.97;;
60257;SDS011;46115;44.484;11.314;2022-10-16T03:20:07;10.27;;;6.68;;
60257;SDS011;46115;44.484;11.314;2022-10-16T03:24:30;8.23;;;6.95;;
60257;SDS011;46115;44.484;11.314;2022-10-16T03:28:53;9.18;;;6.50;;
60257;SDS011;46115;44.484;11.314;2022-10-16T03:33:17;9.63;;;6.80;;
60257;SDS011;46115;44.484;11.314;2022-10-16T03:37:39;11.35;;;6.63;;
60257;SDS011;46115;44.484;11.314;2022-10-16T03:42:02;9.85;;;6.85;;
60257;SDS011;46115;44.484;11.314;2022-10-16T03:46:25;12.98;;;6.90;;
60257;SDS011;46115;44.484;11.314;2022-10-16T03:50:49;8.73;;;6.60;;
60257;SDS011;46115;44.484;11.314;2022-10-16T03:55:12;10.10;;;6.55;;
60257;SDS011;46115;44.484;11.314;2022-10-16T03:59:35;10.88;;;6.70;;
60257;SDS011;46115;44.484;11.314;2022-10-16T04:03:58;12.02;;;6.25;;
60257;SDS011;46115;44.484;11.314;2022-10-16T04:08:22;10.10;;;6.60;;
60257;SDS011;46115;44.484;11.314;2022-10-16T04:12:45;9.98;;;6.70;;
60257;SDS011;46115;44.484;11.314;2022-10-16T04:17:07;9.60;;;6.95;;
60257;SDS011;46115;44.484;11.314;2022-10-16T04:21:31;11.70;;;6.78;;
60257;SDS011;46115;44.484;11.314;2022-10-16T04:25:55;10.52;;;6.60;;
60257;SDS011;46115;44.484;11.314;2022-10-16T04:30:18;9.18;;;6.47;;
60257;SDS011;46115;44.484;11.314;2022-10-16T04:34:41;9.25;;;6.45;;
60257;SDS011;46115;44.484;11.314;2022-10-16T04:39:04;12.82;;;7.03;;
60257;SDS011;46115;44.484;11.314;2022-10-16T04:43:28;10.23;;;7.07;;
60257;SDS011;46115;44.484;11.314;2022-10-16T04:47:52;10.20;;;6.45;;
60257;SDS011;46115;44.484;11.314;2022-10-16T04:52:14;9.40;;;6.47;;
60257;SDS011;46115;44.484;11.314;2022-10-16T04:56:38;10.40;;;6.97;;
60257;SDS011;46115;44.484;11.314;2022-10-16T05:01:08;10.85;;;6.65;;
60257;SDS011;46115;44.484;11.314;2022-10-16T05:05:31;11.75;;;6.97;;
60257;SDS011;46115;44.484;11.314;2022-10-16T05:09:54;11.35;;;6.72;;
60257;SDS011;46115;44.484;11.314;2022-10-16T05:14:17;10.32;;;6.57;;
60257;SDS011;46115;44.484;11.314;2022-10-16T05:18:41;10.27;;;6.63;;
60257;SDS011;46115;44.484;11.314;2022-10-16T05:23:04;10.18;;;6.50;;
60257;SDS011;46115;44.484;11.314;2022-10-16T05:27:27;11.68;;;6.53;;
60257;SDS011;46115;44.484;11.314;2022-10-16T05:31:50;7.30;;;6.50;;
60257;SDS011;46115;44.484;11.314;2022-10-16T05:36:15;10.77;;;7.15;;
60257;SDS011;46115;44.484;11.314;2022-10-16T05:40:39;7.30;;;6.47;;
60257;SDS011;46115;44.484;11.314;2022-10-16T05:45:02;9.90;;;6.55;;
60257;SDS011;46115;44.484;11.314;2022-10-16T05:49:29;9.10;;;6.47;;
60257;SDS011;46115;44.484;11.314;2022-10-16T05:53:54;10.80;;;6.35;;
60257;SDS011;46115;44.484;11.314;2022-10-16T05:58:16;8.82;;;6.18;;
60257;SDS011;46115;44.484;11.314;2022-10-16T06:02:39;7.50;;;6.15;;
60257;SDS011;46115;44.484;11.314;2022-10-16T06:07:02;8.95;;;6.47;;
60257;SDS011;46115;44.484;11.314;2022-10-16T06:11:27;11.05;;;6.50;;
60257;SDS011;46115;44.484;11.314;2022-10-16T06:15:51;10.38;;;6.35;;
60257;SDS011;46115;44.484;11.314;2022-10-16T06:20:14;7.30;;;6.13;;
60257;SDS011;46115;44.484;11.314;2022-10-16T06:24:37;8.63;;;6.47;;
60257;SDS011;46115;44.484;11.314;2022-10-16T06:29:01;9.50;;;6.53;;
60257;SDS011;46115;44.484;11.314;2022-10-16T06:33:24;8.43;;;5.93;;
60257;SDS011;46115;44.484;11.314;2022-10-16T06:37:47;7.82;;;5.22;;
60257;SDS011;46115;44.484;11.314;2022-10-16T06:42:10;10.77;;;5.60;;
60257;SDS011;46115;44.484;11.314;2022-10-16T06:46:34;7.63;;;5.15;;
60257;SDS011;46115;44.484;11.314;2022-10-16T06:50:58;6.53;;;4.90;;
60257;SDS011;46115;44.484;11.314;2022-10-16T06:55:22;8.70;;;5.18;;
60257;SDS011;46115;44.484;11.314;2022-10-16T06:59:45;8.60;;;4.70;;
60257;SDS011;46115;44.484;11.314;2022-10-16T07:04:09;7.40;;;4.50;;
60257;SDS011;46115;44.484;11.314;2022-10-16T07:08:32;8.10;;;4.75;;
60257;SDS011;46115;44.484;11.314;2022-10-16T07:12:56;10.88;;;4.60;;
60257;SDS011;46115;44.484;11.314;2022-10-16T07:17:19;9.07;;;4.30;;
60257;SDS011;46115;44.484;11.314;2022-10-16T07:21:43;7.80;;;3.92;;
60257;SDS011;46115;44.484;11.314;2022-10-16T07:26:06;6.88;;;3.47;;
60257;SDS011;46115;44.484;11.314;2022-10-16T07:30:34;4.55;;;3.42;;
60257;SDS011;46115;44.484;11.314;2022-10-16T07:34:58;6.07;;;3.40;;
60257;SDS011;46115;44.484;11.314;2022-10-16T07:39:22;8.02;;;3.80;;
60257;SDS011;46115;44.484;11.314;2022-10-16T07:43:45;5.55;;;3.25;;
60257;SDS011;46115;44.484;11.314;2022-10-16T07:48:09;5.25;;;2.95;;
60257;SDS011;46115;44.484;11.314;2022-10-16T07:52:32;10.07;;;3.22;;
60257;SDS011;46115;44.484;11.314;2022-10-16T07:56:56;4.90;;;2.97;;
60257;SDS011;46115;44.484;11.314;2022-10-16T08:01:19;6.25;;;3.17;;
60257;SDS011;46115;44.484;11.314;2022-10-16T08:05:42;20.90;;;3.38;;
60257;SDS011;46115;44.484;11.314;2022-10-16T08:10:05;4.63;;;2.97;;
60257;SDS011;46115;44.484;11.314;2022-10-16T08:14:29;5.78;;;2.90;;
60257;SDS011;46115;44.484;11.314;2022-10-16T08:18:52;57.97;;;4.13;;
60257;SDS011;46115;44.484;11.314;2022-10-16T08:23:14;4.45;;;2.90;;
60257;SDS011;46115;44.484;11.314;2022-10-16T08:27:37;6.63;;;3.30;;
60257;SDS011;46115;44.484;11.314;2022-10-16T08:32:03;6.85;;;3.20;;
60257;SDS011;46115;44.484;11.314;2022-10-16T08:36:26;5.32;;;3.55;;
60257;SDS011;46115;44.484;11.314;2022-10-16T08:40:49;7.80;;;3.60;;
60257;SDS011;46115;44.484;11.314;2022-10-16T08:45:23;5.05;;;3.65;;
60257;SDS011;46115;44.484;11.314;2022-10-16T08:50:08;8.02;;;3.90;;
60257;SDS011;46115;44.484;11.314;2022-10-16T08:54:32;7.38;;;5.60;;
60257;SDS011;46115;44.484;11.314;2022-10-16T08:59:01;9.20;;;5.93;;
60257;SDS011;46115;44.484;11.314;2022-10-16T09:03:51;10.52;;;6.25;;
60257;SDS011;46115;44.484;11.314;2022-10-16T09:08:29;7.30;;;5.25;;
60257;SDS011;46115;44.484;11.314;2022-10-16T09:12:59;7.95;;;4.72;;
60257;SDS011;46115;44.484;11.314;2022-10-16T09:17:39;7.85;;;4.68;;
60257;SDS011;46115;44.484;11.314;2022-10-16T09:22:12;8.18;;;4.20;;
60257;SDS011;46115;44.484;11.314;2022-10-16T09:26:39;6.57;;;4.07;;
60257;SDS011;46115;44.484;11.314;2022-10-16T09:31:01;6.55;;;4.32;;
60257;SDS011;46115;44.484;11.314;2022-10-16T09:35:26;7.68;;;4.95;;
60257;SDS011;46115;44.484;11.314;2022-10-16T09:39:54;7.73;;;4.93;;
60257;SDS011;46115;44.484;11.314;2022-10-16T09:44:21;8.13;;;5.47;;
60257;SDS011;46115;44.484;11.314;2022-10-16T09:48:47;9.85;;;5.75;;
60257;SDS011;46115;44.484;11.314;2022-10-16T09:53:12;8.65;;;5.50;;
60257;SDS011;46115;44.484;11.314;2022-10-16T09:57:47;9.80;;;4.97;;
60257;SDS011;46115;44.484;11.314;2022-10-16T10:02:13;8.98;;;5.60;;
60257;SDS011;46115;44.484;11.314;2022-10-16T10:06:41;8.00;;;5.30;;
60257;SDS011;46115;44.484;11.314;2022-10-16T10:11:06;8.27;;;5.60;;
60257;SDS011;46115;44.484;11.314;2022-10-16T10:15:29;9.13;;;6.10;;
60257;SDS011;46115;44.484;11.314;2022-10-16T10:19:59;12.90;;;6.45;;
60257;SDS011;46115;44.484;11.314;2022-10-16T10:24:23;10.85;;;5.90;;
60257;SDS011;46115;44.484;11.314;2022-10-16T10:28:48;9.95;;;6.75;;
60257;SDS011;46115;44.484;11.314;2022-10-16T10:33:19;10.80;;;7.10;;
60257;SDS011;46115;44.484;11.314;2022-10-16T10:37:58;12.88;;;8.23;;
60257;SDS011;46115;44.484;11.314;2022-10-16T10:42:28;13.93;;;8.45;;
60257;SDS011;46115;44.484;11.314;2022-10-16T10:46:56;13.52;;;9.90;;
60257;SDS011;46115;44.484;11.314;2022-10-16T10:51:25;17.45;;;9.60;;
60257;SDS011;46115;44.484;11.314;2022-10-16T10:55:57;13.15;;;9.25;;
60257;SDS011;46115;44.484;11.314;2022-10-16T11:00:28;11.30;;;7.90;;
60257;SDS011;46115;44.484;11.314;2022-10-16T11:05:02;15.32;;;9.13;;
60257;SDS011;46115;44.484;11.314;2022-10-16T11:09:45;12.55;;;8.88;;
60257;SDS011;46115;44.484;11.314;2022-10-16T11:14:14;11.38;;;9.27;;
60257;SDS011;46115;44.484;11.314;2022-10-16T11:18:45;12.68;;;8.40;;
60257;SDS011;46115;44.484;11.314;2022-10-16T11:23:14;13.25;;;8.00;;
60257;SDS011;46115;44.484;11.314;2022-10-16T11:27:43;12.85;;;8.15;;
60257;SDS011;46115;44.484;11.314;2022-10-16T11:32:15;11.63;;;8.70;;
60257;SDS011;46115;44.484;11.314;2022-10-16T11:36:45;15.57;;;8.40;;
60257;SDS011;46115;44.484;11.314;2022-10-16T11:41:17;16.83;;;9.82;;
60257;SDS011;46115;44.484;11.314;2022-10-16T11:45:45;12.68;;;8.45;;
60257;SDS011;46115;44.484;11.314;2022-10-16T11:50:17;12.35;;;8.50;;
60257;SDS011;46115;44.484;11.314;2022-10-16T11:54:45;10.98;;;8.05;;
60257;SDS011;46115;44.484;11.314;2022-10-16T11:59:16;14.00;;;10.30;;
60257;SDS011;46115;44.484;11.314;2022-10-16T12:03:50;14.20;;;10.05;;
60257;SDS011;46115;44.484;11.314;2022-10-16T12:08:24;13.13;;;9.15;;
60257;SDS011;46115;44.484;11.314;2022-10-16T12:12:47;14.98;;;8.80;;
60257;SDS011;46115;44.484;11.314;2022-10-16T12:17:24;12.18;;;8.30;;
60257;SDS011;46115;44.484;11.314;2022-10-16T12:21:48;11.68;;;8.65;;
60257;SDS011;46115;44.484;11.314;2022-10-16T12:26:14;11.82;;;8.85;;
60257;SDS011;46115;44.484;11.314;2022-10-16T12:30:52;12.85;;;9.40;;
60257;SDS011;46115;44.484;11.314;2022-10-16T12:35:17;12.48;;;8.95;;
60257;SDS011;46115;44.484;11.314;2022-10-16T12:39:43;12.15;;;8.02;;
60257;SDS011;46115;44.484;11.314;2022-10-16T12:48:47;12.50;;;8.30;;
60257;SDS011;46115;44.484;11.314;2022-10-16T12:53:17;12.73;;;8.73;;
60257;SDS011;46115;44.484;11.314;2022-10-16T12:57:43;11.60;;;8.45;;
60257;SDS011;46115;44.484;11.314;2022-10-16T13:07:25;11.38;;;7.85;;
60257;SDS011;46115;44.484;11.314;2022-10-16T13:12:06;13.50;;;7.13;;
60257;SDS011;46115;44.484;11.314;2022-10-16T13:16:40;10.20;;;8.07;;
60257;SDS011;46115;44.484;11.314;2022-10-16T13:21:21;12.13;;;6.88;;
60257;SDS011;46115;44.484;11.314;2022-10-16T13:25:58;12.30;;;8.77;;
60257;SDS011;46115;44.484;11.314;2022-10-16T13:30:29;12.25;;;7.70;;
60257;SDS011;46115;44.484;11.314;2022-10-16T13:34:57;13.82;;;7.90;;
60257;SDS011;46115;44.484;11.314;2022-10-16T13:39:24;10.02;;;7.50;;
60257;SDS011;46115;44.484;11.314;2022-10-16T13:43:48;9.98;;;6.75;;
60257;SDS011;46115;44.484;11.314;2022-10-16T13:48:13;10.55;;;6.97;;
60257;SDS011;46115;44.484;11.314;2022-10-16T13:52:36;12.25;;;7.03;;
60257;SDS011;46115;44.484;11.314;2022-10-16T13:57:05;20.05;;;7.88;;
60257;SDS011;46115;44.484;11.314;2022-10-16T14:01:29;20.92;;;6.70;;
60257;SDS011;46115;44.484;11.314;2022-10-16T14:05:56;11.43;;;6.40;;
60257;SDS011;46115;44.484;11.314;2022-10-16T14:10:22;13.00;;;6.55;;
60257;SDS011;46115;44.484;11.314;2022-10-16T14:14:50;10.27;;;7.35;;
60257;SDS011;46115;44.484;11.314;2022-10-16T14:19:18;11.23;;;7.05;;
60257;SDS011;46115;44.484;11.314;2022-10-16T14:23:44;10.35;;;7.15;;
60257;SDS011;46115;44.484;11.314;2022-10-16T14:28:14;9.40;;;7.05;;
60257;SDS011;46115;44.484;11.314;2022-10-16T14:32:41;9.48;;;6.88;;
60257;SDS011;46115;44.484;11.314;2022-10-16T14:37:21;9.85;;;6.70;;
60257;SDS011;46115;44.484;11.314;2022-10-16T14:41:48;11.68;;;6.85;;
60257;SDS011;46115;44.484;11.314;2022-10-16T14:46:12;8.43;;;6.50;;
60257;SDS011;46115;44.484;11.314;2022-10-16T14:50:41;11.88;;;6.88;;
60257;SDS011;46115;44.484;11.314;2022-10-16T14:55:05;10.07;;;6.30;;
60257;SDS011;46115;44.484;11.314;2022-10-16T14:59:30;9.48;;;6.25;;
60257;SDS011;46115;44.484;11.314;2022-10-16T15:03:56;11.13;;;6.40;;
60257;SDS011;46115;44.484;11.314;2022-10-16T15:08:20;11.85;;;5.88;;
60257;SDS011;46115;44.484;11.314;2022-10-16T15:12:42;12.88;;;6.03;;
60257;SDS011;46115;44.484;11.314;2022-10-16T15:17:07;9.60;;;5.82;;
60257;SDS011;46115;44.484;11.314;2022-10-16T15:21:31;8.43;;;6.22;;
60257;SDS011;46115;44.484;11.314;2022-10-16T15:26:02;10.93;;;6.25;;
60257;SDS011;46115;44.484;11.314;2022-10-16T15:30:26;8.65;;;6.10;;
60257;SDS011;46115;44.484;11.314;2022-10-16T15:34:49;10.95;;;6.07;;
60257;SDS011;46115;44.484;11.314;2022-10-16T15:39:12;8.05;;;5.68;;
60257;SDS011;46115;44.484;11.314;2022-10-16T15:43:39;11.70;;;5.72;;
60257;SDS011;46115;44.484;11.314;2022-10-16T15:48:02;10.50;;;6.32;;
60257;SDS011;46115;44.484;11.314;2022-10-16T15:52:24;11.93;;;6.38;;
60257;SDS011;46115;44.484;11.314;2022-10-16T15:56:48;10.27;;;6.30;;
60257;SDS011;46115;44.484;11.314;2022-10-16T16:01:12;8.60;;;6.18;;
60257;SDS011;46115;44.484;11.314;2022-10-16T16:05:37;9.80;;;6.20;;
60257;SDS011;46115;44.484;11.314;2022-10-16T16:10:01;9.35;;;6.20;;
60257;SDS011;46115;44.484;11.314;2022-10-16T16:14:26;9.32;;;6.13;;
60257;SDS011;46115;44.484;11.314;2022-10-16T16:18:52;9.60;;;6.40;;
60257;SDS011;46115;44.484;11.314;2022-10-16T16:23:15;7.80;;;5.65;;
60257;SDS011;46115;44.484;11.314;2022-10-16T16:27:38;10.35;;;6.18;;
60257;SDS011;46115;44.484;11.314;2022-10-16T16:32:01;8.60;;;6.10;;
60257;SDS011;46115;44.484;11.314;2022-10-16T16:36:25;9.35;;;5.88;;
60257;SDS011;46115;44.484;11.314;2022-10-16T16:40:48;10.50;;;5.68;;
60257;SDS011;46115;44.484;11.314;2022-10-16T16:45:10;7.60;;;5.93;;
60257;SDS011;46115;44.484;11.314;2022-10-16T16:49:33;12.90;;;6.72;;
60257;SDS011;46115;44.484;11.314;2022-10-16T16:53:57;10.10;;;6.65;;
60257;SDS011;46115;44.484;11.314;2022-10-16T22:06:08;10.88;;;8.70;;
60257;SDS011;46115;44.484;11.314;2022-10-16T22:10:31;11.05;;;8.10;;
60257;SDS011;46115;44.484;11.314;2022-10-16T22:14:54;11.85;;;8.10;;
60257;SDS011;46115;44.484;11.314;2022-10-16T22:19:18;11.50;;;8.55;;
60257;SDS011;46115;44.484;11.314;2022-10-16T22:23:43;12.65;;;8.45;;
60257;SDS011;46115;44.484;11.314;2022-10-16T22:28:05;12.38;;;8.07;;
60257;SDS011;46115;44.484;11.314;2022-10-16T22:32:29;13.23;;;8.60;;
60257;SDS011;46115;44.484;11.314;2022-10-16T22:36:53;13.80;;;8.13;;
60257;SDS011;46115;44.484;11.314;2022-10-16T22:41:17;11.60;;;8.02;;
60257;SDS011;46115;44.484;11.314;2022-10-16T22:45:41;8.77;;;7.65;;
60257;SDS011;46115;44.484;11.314;2022-10-16T22:50:04;12.95;;;8.55;;
60257;SDS011;46115;44.484;11.314;2022-10-16T22:54:27;10.63;;;8.07;;
60257;SDS011;46115;44.484;11.314;2022-10-16T22:58:51;13.95;;;9.27;;
60257;SDS011;46115;44.484;11.314;2022-10-16T23:03:14;14.43;;;8.70;;
60257;SDS011;46115;44.484;11.314;2022-10-16T23:07:37;11.75;;;8.20;;
60257;SDS011;46115;44.484;11.314;2022-10-16T23:12:00;11.48;;;8.70;;
60257;SDS011;46115;44.484;11.314;2022-10-16T23:16:24;11.60;;;8.15;;
60257;SDS011;46115;44.484;11.314;2022-10-16T23:20:47;10.70;;;8.07;;
60257;SDS011;46115;44.484;11.314;2022-10-16T23:25:09;11.65;;;8.15;;
60257;SDS011;46115;44.484;11.314;2022-10-16T23:29:32;12.90;;;8.48;;
60257;SDS011;46115;44.484;11.314;2022-10-16T23:33:56;11.85;;;8.35;;
60257;SDS011;46115;44.484;11.314;2022-10-16T23:38:20;11.23;;;8.70;;
60257;SDS011;46115;44.484;11.314;2022-10-16T23:42:43;11.45;;;8.10;;
60257;SDS011;46115;44.484;11.314;2022-10-16T23:47:05;11.18;;;8.35;;
60257;SDS011;46115;44.484;11.314;2022-10-16T23:51:30;10.82;;;8.32;;
60257;SDS011;46115;44.484;11.314;2022-10-16T23:55:52;12.48;;;8.85;;
